首页
METAR-TAF:

METAR-TAF

机场 :

皮斯里弗, 艾伯塔, 加拿大

纬度: 56-14N, 经度: 117-26W, 海拔: 571米

当前天气观测

该预报发布于1小时和15分钟前的14:00 UTC
风速5节,风向西南
温度 11°C
湿度 76%
气压 1003 hPa
能見度: 24.1公里
少量云层高于8000英尺
多云层高于15000英尺
多云层高于23000英尺

METAR: CYPE 261400Z 22005KT 15SM FEW080 BKN150 BKN230 11/07 A2963 RMK AC1AC5CI1 SLP044 DENSITY ALT 2200FT

时间: 09:15 (15:15 UTC)

预报

该预报发布于2小时和35分钟前的12:40 UTC
预报有效从26日的 13点(UTC)到 27日的 01点(UTC)
风速3节,风向多变
能見度: 10公里
多云层高于8000英尺
从 26日的 1600点(UTC)
风速8节,风向西转西南
能見度: 10公里
多云层高于8000英尺
短暂存在
从 26日的 16点(UTC)到 27日的 01点(UTC)
能見度: 10公里
小阵雨
几率 30%
从 26日的 18点(UTC)到 27日的 01点(UTC)
风速15节,风向多变,有时为25节阵风
能見度: 8.0公里
多云层高于5000英尺, 积雨云.
雷暴, 雨

TAF: CYPE 261240Z 2613/2701 VRB03KT P6SM BKN080 FM261600 25008KT P6SM BKN080 TEMPO 2616/2701 P6SM -SHRA PROB30 2618/2701 VRB15G25KT 5SM TSRA BKN050CB RMK NXT FCST BY 261900Z

超过4000个机场的气象观测和天气预报(METAR&TAF报告)。

可查询的气象台以黄色和红色小点在地图上表示。

将鼠标移到小点上方,可查看气象台名称。

然后点击查看天气观测和预报。

如需切换地图:点击带黑十字的绿色按钮放大地图;点击带横线的绿色按钮缩小地图;或者点击绿色箭头查看邻近地区的地图。


METAR-TAF: